createdAt,value
2023-02-02T00:07:58.544Z,37.90
2023-02-02T00:23:00.031Z,37.90
2023-02-02T00:38:01.487Z,37.90
2023-02-02T00:53:02.967Z,37.80
2023-02-02T01:08:04.433Z,37.80
2023-02-02T01:23:05.908Z,37.70
2023-02-02T01:38:07.373Z,37.80
2023-02-02T01:53:08.866Z,37.80
2023-02-02T02:08:10.356Z,38.30
2023-02-02T02:23:11.824Z,37.80
2023-02-02T02:38:13.294Z,37.80
2023-02-02T02:53:14.774Z,37.80
2023-02-02T03:08:16.239Z,37.80
2023-02-02T03:23:17.690Z,37.90
2023-02-02T03:38:19.165Z,37.90
2023-02-02T03:53:20.634Z,37.90
2023-02-02T04:08:23.030Z,37.90
2023-02-02T04:23:24.504Z,37.90
2023-02-02T04:38:25.975Z,37.90
2023-02-02T04:53:27.459Z,38.00
2023-02-02T05:08:28.942Z,37.90
2023-02-02T05:23:30.415Z,38.00
2023-02-02T05:38:31.895Z,38.00
2023-02-02T05:53:33.366Z,38.10
2023-02-02T06:08:34.831Z,38.10
2023-02-02T06:23:36.354Z,38.10
2023-02-02T06:38:37.832Z,38.10
2023-02-02T06:53:39.317Z,38.10
2023-02-02T07:08:40.808Z,38.00
2023-02-02T07:23:42.278Z,38.20
2023-02-02T07:38:43.734Z,38.20
2023-02-02T07:53:45.210Z,38.20
2023-02-02T08:08:46.749Z,38.10
2023-02-02T08:23:48.241Z,38.10
2023-02-02T08:38:49.717Z,38.10
2023-02-02T08:53:51.227Z,38.10
2023-02-02T09:08:52.740Z,38.90
2023-02-02T09:23:54.228Z,38.10
2023-02-02T09:38:55.705Z,38.10
2023-02-02T09:53:57.174Z,38.00
2023-02-02T10:08:58.651Z,38.00
2023-02-02T10:24:02.225Z,37.90
2023-02-02T10:39:03.870Z,37.70
2023-02-02T10:54:05.378Z,37.80
2023-02-02T11:09:06.901Z,37.70
2023-02-02T11:24:08.374Z,37.70
2023-02-02T11:39:11.008Z,37.70
2023-02-02T11:54:12.482Z,37.90
2023-02-02T12:09:13.949Z,38.10
2023-02-02T12:24:15.418Z,37.90
2023-02-02T12:39:16.906Z,37.90
2023-02-02T12:54:35.227Z,37.90
2023-02-02T13:09:39.754Z,37.90
2023-02-02T13:24:41.193Z,38.00
2023-02-02T13:39:42.622Z,38.10
2023-02-02T13:54:45.753Z,38.10
2023-02-02T14:09:47.294Z,38.10
2023-02-02T14:24:48.834Z,38.00
2023-02-02T14:39:50.240Z,38.00
2023-02-02T14:54:51.691Z,37.90
2023-02-02T15:09:53.134Z,37.90
2023-02-02T15:24:54.541Z,37.80
2023-02-02T15:39:55.963Z,37.80
2023-02-02T15:54:57.393Z,37.80
2023-02-02T16:09:58.820Z,37.80
2023-02-02T16:25:00.221Z,37.80
2023-02-02T16:40:01.621Z,37.80
2023-02-02T16:55:03.018Z,37.90
2023-02-02T17:10:04.427Z,38.20
2023-02-02T17:25:05.876Z,38.40
2023-02-02T17:40:07.295Z,38.70
2023-02-02T17:55:08.703Z,40.10
2023-02-02T18:10:10.105Z,39.20
2023-02-02T18:25:11.569Z,39.40
2023-02-02T18:40:12.984Z,39.50
2023-02-02T18:55:14.403Z,39.50
2023-02-02T19:10:15.806Z,39.50
2023-02-02T19:25:17.210Z,39.70
2023-02-02T19:40:18.627Z,39.90
2023-02-02T19:55:20.109Z,40.00
2023-02-02T20:10:21.534Z,40.00
2023-02-02T20:25:22.960Z,40.10
2023-02-02T20:40:24.835Z,40.10
2023-02-02T20:55:26.400Z,40.10
2023-02-02T21:10:28.072Z,40.10
2023-02-02T21:25:29.672Z,40.10
2023-02-02T21:40:31.065Z,40.10
2023-02-02T21:55:32.474Z,40.30
2023-02-02T22:10:38.965Z,40.20
2023-02-02T22:25:59.988Z,40.20
2023-02-02T22:41:01.486Z,40.20
2023-02-02T22:56:02.987Z,40.40
2023-02-02T23:11:04.458Z,40.50
2023-02-02T23:26:05.867Z,40.70
2023-02-02T23:41:07.317Z,40.60
2023-02-02T23:56:08.740Z,40.70
